Time;durP1;ratioP1;P1;durP2;ratioP2;P2;SDS_P1;SDS_P2;PMS_P1;PMS_P2;Temp;Humidity;BMP_temperature;BMP_pressure;BME280_temperature;BME280_humidity;BME280_pressure;Samples;Min_cycle;Max_cycle;Signal;HPM_P1;HPM_P2
2022/03/30 00:01:34;;;;;;;13.33;8.23;;;13.50;59.90;;;;;;5056258;28;20467;-46
2022/03/30 00:04:01;;;;;;;10.27;8.00;;;13.50;60.00;;;;;;5062084;28;20455;-46
2022/03/30 00:06:28;;;;;;;11.30;7.70;;;13.50;60.00;;;;;;5060652;28;20468;-45
2022/03/30 00:08:54;;;;;;;11.50;8.23;;;13.50;60.20;;;;;;5047104;28;21010;-45
2022/03/30 00:11:22;;;;;;;13.27;9.03;;;13.40;60.30;;;;;;5058292;28;20459;-45
2022/03/30 00:13:49;;;;;;;15.77;8.47;;;13.50;60.50;;;;;;5059509;28;20471;-45
2022/03/30 00:16:15;;;;;;;11.80;7.80;;;13.50;60.50;;;;;;5058506;28;20872;-46
2022/03/30 00:18:42;;;;;;;11.93;8.93;;;13.50;60.80;;;;;;5056883;28;20456;-46
2022/03/30 00:21:09;;;;;;;13.17;9.10;;;13.50;60.70;;;;;;5058414;28;20456;-46
2022/03/30 00:23:36;;;;;;;13.70;9.27;;;13.50;60.70;;;;;;5060573;28;20833;-46
2022/03/30 00:26:03;;;;;;;15.27;9.43;;;13.50;60.50;;;;;;5056233;28;20464;-46
2022/03/30 00:28:29;;;;;;;12.87;8.70;;;13.40;60.40;;;;;;5058107;28;20467;-46
2022/03/30 00:30:57;;;;;;;11.77;8.27;;;13.40;60.10;;;;;;5057702;28;20555;-46
2022/03/30 00:33:24;;;;;;;11.93;9.20;;;13.50;60.60;;;;;;5057981;28;20494;-46
2022/03/30 00:35:51;;;;;;;13.40;8.77;;;13.50;60.40;;;;;;5055010;28;20454;-46
2022/03/30 00:38:18;;;;;;;13.20;8.90;;;13.50;60.20;;;;;;5059175;28;20470;-46
2022/03/30 00:40:45;;;;;;;14.43;9.00;;;13.40;60.30;;;;;;5051021;28;20478;-45
2022/03/30 00:43:12;;;;;;;12.63;8.40;;;13.40;60.40;;;;;;5050180;28;20944;-46
2022/03/30 00:45:39;;;;;;;12.00;9.67;;;13.40;60.40;;;;;;5058148;28;20505;-45
2022/03/30 00:48:07;;;;;;;12.70;9.33;;;13.40;60.30;;;;;;5059627;28;20992;-46
2022/03/30 00:50:34;;;;;;;12.33;10.20;;;13.40;60.40;;;;;;5060232;28;20463;-45
2022/03/30 00:53:01;;;;;;;13.67;9.20;;;13.40;60.70;;;;;;5045191;28;20578;-45
2022/03/30 00:55:27;;;;;;;12.53;9.30;;;13.40;60.90;;;;;;5063003;28;20463;-45
2022/03/30 00:57:56;;;;;;;15.03;9.10;;;13.40;60.90;;;;;;5046585;28;20445;-45
2022/03/30 01:00:23;;;;;;;12.70;9.17;;;13.30;61.30;;;;;;5050241;28;20460;-46
2022/03/30 01:02:51;;;;;;;11.37;9.87;;;13.30;61.10;;;;;;5063801;28;20455;-46
2022/03/30 01:05:18;;;;;;;13.27;8.80;;;13.30;61.30;;;;;;5062326;28;20471;-45
2022/03/30 01:07:45;;;;;;;14.73;11.37;;;13.30;61.30;;;;;;5047411;28;20459;-46
2022/03/30 01:10:13;;;;;;;13.33;9.77;;;13.20;61.10;;;;;;5061500;28;21178;-46
2022/03/30 01:12:41;;;;;;;13.30;9.57;;;13.20;60.80;;;;;;5063612;28;20906;-46
2022/03/30 01:15:09;;;;;;;16.97;12.27;;;13.20;60.40;;;;;;5060428;28;20446;-46
2022/03/30 01:17:39;;;;;;;13.97;9.73;;;13.20;60.30;;;;;;5042180;28;20859;-46
2022/03/30 01:20:07;;;;;;;16.40;10.90;;;13.20;60.40;;;;;;5062831;28;20459;-46
2022/03/30 01:22:34;;;;;;;15.90;9.67;;;13.20;60.70;;;;;;5063726;28;20455;-45
2022/03/30 01:25:02;;;;;;;16.80;11.33;;;13.20;61.30;;;;;;5050200;28;21015;-46
2022/03/30 01:27:29;;;;;;;10.97;9.77;;;13.20;61.30;;;;;;5064489;28;20466;-46
2022/03/30 01:32:41;;;;;;;16.00;10.93;;;13.10;62.00;;;;;;5055459;28;21008;-46
2022/03/30 01:35:10;;;;;;;16.70;11.40;;;13.10;62.40;;;;;;5061282;28;20492;-46
2022/03/30 01:37:37;;;;;;;15.93;10.50;;;13.10;62.30;;;;;;5062424;28;20926;-46
2022/03/30 01:40:06;;;;;;;16.10;11.80;;;13.00;62.40;;;;;;5066836;28;20467;-45
2022/03/30 01:42:33;;;;;;;14.90;11.20;;;13.00;63.00;;;;;;5059012;28;20478;-45
2022/03/30 01:45:00;;;;;;;18.40;12.43;;;13.00;63.10;;;;;;5058898;28;20554;-45
2022/03/30 01:47:27;;;;;;;18.93;12.60;;;13.00;63.10;;;;;;5060712;28;20479;-45
2022/03/30 01:49:54;;;;;;;15.83;12.17;;;13.10;62.60;;;;;;5063033;28;20968;-45
2022/03/30 01:52:21;;;;;;;18.77;12.77;;;13.00;62.60;;;;;;5043046;28;20490;-45
2022/03/30 01:54:48;;;;;;;24.40;13.03;;;13.00;62.40;;;;;;5060334;28;20459;-45
2022/03/30 01:57:15;;;;;;;23.43;15.23;;;12.90;62.50;;;;;;5054865;28;20460;-45
2022/03/30 01:59:43;;;;;;;24.03;15.30;;;12.80;62.70;;;;;;5056793;28;20833;-45
2022/03/30 02:02:11;;;;;;;22.77;13.07;;;12.80;62.70;;;;;;5061818;28;20462;-45
2022/03/30 02:04:38;;;;;;;19.60;13.23;;;12.70;63.00;;;;;;5063534;28;20479;-45
2022/03/30 02:07:09;;;;;;;20.60;14.03;;;12.70;63.60;;;;;;5058543;28;20845;-45
2022/03/30 02:09:37;;;;;;;20.77;13.83;;;12.70;64.30;;;;;;5059410;28;20467;-45
2022/03/30 02:12:06;;;;;;;19.40;14.73;;;12.70;65.30;;;;;;5059314;28;20601;-45
2022/03/30 02:14:33;;;;;;;21.20;15.50;;;12.80;65.80;;;;;;5061040;28;20547;-45
2022/03/30 02:17:00;;;;;;;20.13;14.53;;;12.80;65.80;;;;;;5061813;28;20468;-45
2022/03/30 02:19:26;;;;;;;26.20;14.30;;;12.70;66.10;;;;;;5046059;28;20460;-45
2022/03/30 02:21:53;;;;;;;24.50;15.17;;;12.70;66.30;;;;;;5048243;28;20465;-46
2022/03/30 02:24:20;;;;;;;19.07;13.37;;;12.60;66.90;;;;;;5061952;28;20474;-45
2022/03/30 02:26:47;;;;;;;21.00;14.33;;;12.60;67.60;;;;;;5060212;28;20479;-45
2022/03/30 02:29:15;;;;;;;19.73;13.80;;;12.50;67.90;;;;;;5062637;28;20455;-46
2022/03/30 02:31:44;;;;;;;20.97;13.63;;;12.50;68.50;;;;;;5041871;28;21052;-46
2022/03/30 02:34:11;;;;;;;18.67;14.17;;;12.50;69.20;;;;;;5047613;28;20479;-46
2022/03/30 02:36:39;;;;;;;22.57;14.30;;;12.40;69.90;;;;;;5061382;28;20475;-45
2022/03/30 02:39:06;;;;;;;20.60;13.93;;;12.40;70.20;;;;;;5061046;28;20466;-48
2022/03/30 02:41:32;;;;;;;19.23;13.53;;;12.40;70.70;;;;;;5059958;28;20570;-49
2022/03/30 02:43:59;;;;;;;23.00;14.33;;;12.40;70.20;;;;;;5061346;28;20825;-49
2022/03/30 02:46:26;;;;;;;19.80;13.30;;;12.40;70.10;;;;;;5055548;28;20996;-49
2022/03/30 02:48:53;;;;;;;22.70;15.47;;;12.30;70.00;;;;;;5064588;28;20456;-48
2022/03/30 02:51:20;;;;;;;24.37;14.93;;;12.30;69.60;;;;;;5060296;28;20455;-48
2022/03/30 02:53:46;;;;;;;20.70;14.20;;;12.40;69.60;;;;;;5063308;28;20834;-49
2022/03/30 02:56:13;;;;;;;22.50;15.63;;;12.30;69.70;;;;;;5064298;28;20492;-48
2022/03/30 02:58:40;;;;;;;25.63;16.00;;;12.30;69.80;;;;;;5061360;28;20957;-49
2022/03/30 03:01:07;;;;;;;24.80;16.03;;;12.30;69.90;;;;;;5064290;28;20463;-48
2022/03/30 03:03:33;;;;;;;27.17;15.87;;;12.30;70.10;;;;;;5061344;28;20993;-49
2022/03/30 03:06:00;;;;;;;24.97;15.23;;;12.30;70.10;;;;;;5058791;28;20556;-49
2022/03/30 03:08:27;;;;;;;25.00;16.00;;;12.30;70.20;;;;;;5057898;28;20470;-48
2022/03/30 03:10:54;;;;;;;22.50;16.43;;;12.20;70.40;;;;;;5059704;28;20835;-48
2022/03/30 03:13:21;;;;;;;22.40;15.73;;;12.20;70.70;;;;;;5063142;28;20486;-48
2022/03/30 03:15:48;;;;;;;25.00;15.23;;;12.20;70.90;;;;;;5059697;28;20958;-48
2022/03/30 03:18:18;;;;;;;22.90;16.93;;;12.10;71.20;;;;;;5060619;28;20514;-48
2022/03/30 03:20:47;;;;;;;27.00;16.43;;;12.20;71.70;;;;;;5059819;28;20455;-49
2022/03/30 03:23:15;;;;;;;25.60;17.07;;;12.20;71.50;;;;;;5061820;28;20555;-49
2022/03/30 03:25:43;;;;;;;27.10;16.93;;;12.10;71.50;;;;;;5058191;28;20547;-48
2022/03/30 03:28:12;;;;;;;27.23;17.40;;;12.20;71.30;;;;;;5064028;28;20876;-48
2022/03/30 03:30:39;;;;;;;26.70;16.60;;;12.10;71.50;;;;;;5058165;28;20809;-48
2022/03/30 03:33:07;;;;;;;26.33;16.07;;;12.10;71.80;;;;;;5059387;28;20482;-48
2022/03/30 03:35:35;;;;;;;28.87;18.97;;;12.10;72.00;;;;;;5060793;28;20574;-48
2022/03/30 03:38:03;;;;;;;28.30;17.03;;;12.10;72.10;;;;;;5058926;28;20455;-48
2022/03/30 03:40:31;;;;;;;28.53;18.37;;;12.00;72.20;;;;;;5047178;28;20469;-49
2022/03/30 03:42:59;;;;;;;27.30;17.40;;;12.00;72.30;;;;;;5046758;28;20463;-48
2022/03/30 03:45:26;;;;;;;27.10;19.27;;;12.00;72.40;;;;;;5058003;28;20470;-49
2022/03/30 03:47:53;;;;;;;28.00;18.57;;;12.00;72.80;;;;;;5058937;28;20559;-48
2022/03/30 03:50:20;;;;;;;26.17;17.00;;;11.90;72.90;;;;;;5061920;28;20459;-48
2022/03/30 03:52:47;;;;;;;27.13;16.77;;;11.90;73.10;;;;;;5063132;28;20809;-48
2022/03/30 03:55:19;;;;;;;30.00;19.03;;;11.90;73.30;;;;;;5059541;28;20462;-48
2022/03/30 03:57:46;;;;;;;26.13;17.43;;;11.90;73.20;;;;;;5058518;28;20457;-48
2022/03/30 04:00:14;;;;;;;28.80;17.10;;;11.80;73.30;;;;;;5059722;28;20457;-48
2022/03/30 04:02:41;;;;;;;29.97;19.73;;;11.80;73.40;;;;;;5044119;28;20497;-48
2022/03/30 04:05:09;;;;;;;26.47;17.53;;;11.80;73.50;;;;;;5057318;28;20510;-49
2022/03/30 04:07:38;;;;;;;23.67;17.37;;;11.80;73.50;;;;;;5057978;28;20550;-49
2022/03/30 04:10:06;;;;;;;34.97;18.67;;;11.80;73.30;;;;;;5060584;28;20471;-49
2022/03/30 04:12:33;;;;;;;29.83;18.47;;;11.80;73.20;;;;;;5054467;28;20973;-48
2022/03/30 04:15:00;;;;;;;30.43;19.10;;;11.80;73.00;;;;;;5058056;28;20494;-48
2022/03/30 04:17:27;;;;;;;34.47;21.17;;;11.70;73.00;;;;;;5058343;28;20487;-48
2022/03/30 04:19:54;;;;;;;29.13;20.00;;;11.70;73.20;;;;;;5060977;28;20453;-48
2022/03/30 04:22:20;;;;;;;25.53;18.33;;;11.70;73.90;;;;;;5059537;28;20467;-49
2022/03/30 04:24:47;;;;;;;29.23;19.77;;;11.80;74.40;;;;;;5060323;28;20467;-49
2022/03/30 04:27:14;;;;;;;33.23;20.67;;;11.80;74.70;;;;;;5065810;28;20465;-48
2022/03/30 04:29:41;;;;;;;34.27;20.90;;;11.80;74.60;;;;;;5061097;28;20462;-48
2022/03/30 04:32:08;;;;;;;31.37;19.73;;;11.70;74.60;;;;;;5063843;28;21199;-48
2022/03/30 04:34:35;;;;;;;35.70;22.77;;;11.60;75.20;;;;;;5041520;28;20491;-48
2022/03/30 04:37:02;;;;;;;32.47;20.93;;;11.60;75.50;;;;;;5060485;28;20472;-48
2022/03/30 04:39:29;;;;;;;32.27;20.67;;;11.60;76.10;;;;;;5057417;28;20618;-47
2022/03/30 04:41:56;;;;;;;31.53;20.63;;;11.40;76.40;;;;;;5054922;28;20828;-46
2022/03/30 04:44:25;;;;;;;39.67;22.53;;;11.40;76.70;;;;;;5055255;28;20466;-47
2022/03/30 04:46:52;;;;;;;39.33;22.30;;;11.40;77.30;;;;;;5052437;28;20975;-47
2022/03/30 04:49:19;;;;;;;33.53;20.73;;;11.30;77.40;;;;;;5056850;28;20459;-47
2022/03/30 04:51:46;;;;;;;33.20;21.60;;;11.30;77.50;;;;;;5061111;28;20946;-47
2022/03/30 04:54:12;;;;;;;32.67;21.77;;;11.20;77.30;;;;;;5056016;28;20988;-47
2022/03/30 04:56:40;;;;;;;36.40;22.50;;;11.20;77.80;;;;;;5040453;28;20454;-47
2022/03/30 04:59:07;;;;;;;41.27;23.40;;;11.20;77.90;;;;;;5057455;28;20456;-48
2022/03/30 05:01:35;;;;;;;35.03;21.10;;;11.10;78.50;;;;;;5061847;28;20455;-47
2022/03/30 05:04:02;;;;;;;34.27;22.10;;;11.00;78.70;;;;;;5055391;28;20499;-47
2022/03/30 05:06:29;;;;;;;38.97;23.10;;;11.00;79.00;;;;;;5056706;28;20460;-47
2022/03/30 05:08:56;;;;;;;40.37;21.80;;;11.00;79.80;;;;;;5050398;28;20949;-47
2022/03/30 05:11:22;;;;;;;36.50;21.23;;;10.90;79.70;;;;;;5057373;28;20470;-47
2022/03/30 05:13:49;;;;;;;36.73;20.17;;;10.90;79.90;;;;;;5039021;28;20475;-47
2022/03/30 05:16:16;;;;;;;37.83;21.63;;;10.90;80.00;;;;;;5057547;28;20492;-47
2022/03/30 05:18:42;;;;;;;38.77;22.47;;;10.80;80.10;;;;;;5058326;28;20941;-47
2022/03/30 05:21:09;;;;;;;36.67;19.97;;;10.80;80.30;;;;;;5057277;28;20454;-47
2022/03/30 05:23:36;;;;;;;34.60;20.37;;;10.80;80.40;;;;;;5046801;28;20829;-47
2022/03/30 05:26:04;;;;;;;34.27;22.43;;;10.80;80.60;;;;;;5063193;28;20465;-48
2022/03/30 05:28:31;;;;;;;37.13;21.83;;;10.70;80.50;;;;;;5058253;28;20851;-47
2022/03/30 05:30:58;;;;;;;31.50;20.57;;;10.70;80.70;;;;;;5048011;28;20490;-47
2022/03/30 05:33:25;;;;;;;38.50;21.70;;;10.60;80.90;;;;;;5060820;28;20566;-47
2022/03/30 05:35:51;;;;;;;37.23;21.47;;;10.60;81.20;;;;;;5060574;28;20463;-47
2022/03/30 05:38:18;;;;;;;34.13;21.70;;;10.60;81.30;;;;;;5054084;28;20895;-47
2022/03/30 05:40:45;;;;;;;42.83;22.00;;;10.50;82.10;;;;;;5059115;28;20461;-47
2022/03/30 05:43:11;;;;;;;40.10;23.80;;;10.50;82.10;;;;;;5055763;28;20461;-47
2022/03/30 05:45:38;;;;;;;41.63;24.03;;;10.50;82.10;;;;;;5062271;28;20462;-47
2022/03/30 05:48:05;;;;;;;39.63;23.47;;;10.50;82.40;;;;;;5062151;28;20511;-47
2022/03/30 05:50:32;;;;;;;39.47;22.80;;;10.50;82.60;;;;;;5055537;28;20882;-47
2022/03/30 05:52:59;;;;;;;41.63;23.10;;;10.50;82.40;;;;;;5058777;28;20502;-47
2022/03/30 05:55:26;;;;;;;36.60;23.20;;;10.40;82.40;;;;;;5060835;28;20461;-47
2022/03/30 05:57:53;;;;;;;35.57;23.37;;;10.40;82.60;;;;;;5061148;28;20455;-47
2022/03/30 06:00:20;;;;;;;38.67;22.70;;;10.40;82.70;;;;;;5058504;28;20486;-47
2022/03/30 06:02:46;;;;;;;30.10;19.70;;;10.40;82.70;;;;;;5064077;28;20452;-47
2022/03/30 06:05:13;;;;;;;38.17;23.97;;;10.50;83.00;;;;;;5067508;28;20435;-47
2022/03/30 06:07:40;;;;;;;38.20;23.00;;;10.50;82.80;;;;;;5060453;28;20487;-47
2022/03/30 06:10:07;;;;;;;39.87;23.37;;;10.50;83.00;;;;;;5063976;28;20462;-47
2022/03/30 06:12:34;;;;;;;40.37;23.70;;;10.50;83.20;;;;;;5058553;28;20458;-47
2022/03/30 06:15:01;;;;;;;42.37;24.10;;;10.60;83.30;;;;;;5058265;28;20495;-47
2022/03/30 06:17:33;;;;;;;36.10;22.13;;;10.60;83.10;;;;;;5057167;28;20522;-47
2022/03/30 06:20:03;;;;;;;39.87;23.60;;;10.50;83.20;;;;;;5044378;28;20494;-49
2022/03/30 06:22:31;;;;;;;40.20;23.80;;;10.50;83.20;;;;;;5046208;28;20460;-47
2022/03/30 06:24:59;;;;;;;37.67;23.20;;;10.50;83.30;;;;;;5056695;28;21071;-47
2022/03/30 06:27:26;;;;;;;39.77;23.10;;;10.50;83.50;;;;;;5060344;28;20497;-47
2022/03/30 06:29:53;;;;;;;37.60;23.10;;;10.50;83.50;;;;;;5059130;28;20473;-47
2022/03/30 06:32:20;;;;;;;41.07;23.37;;;10.60;83.80;;;;;;5063427;28;20455;-47
2022/03/30 06:34:47;;;;;;;35.37;21.77;;;10.70;83.40;;;;;;5061620;28;20785;-47
2022/03/30 06:37:14;;;;;;;36.50;21.47;;;10.70;82.90;;;;;;5054668;28;20466;-47
2022/03/30 06:39:40;;;;;;;41.60;23.27;;;10.70;82.80;;;;;;5058810;28;20447;-47
2022/03/30 06:42:09;;;;;;;38.07;23.30;;;10.70;82.90;;;;;;5063421;28;20495;-47
2022/03/30 06:44:37;;;;;;;41.47;24.40;;;10.60;83.00;;;;;;5044521;28;20451;-47
2022/03/30 06:47:04;;;;;;;46.73;24.10;;;10.70;82.70;;;;;;5043001;28;20466;-47
2022/03/30 06:49:31;;;;;;;37.10;23.30;;;10.60;82.90;;;;;;5041800;28;20455;-47
2022/03/30 06:51:57;;;;;;;40.37;24.07;;;10.60;83.10;;;;;;5057654;28;20464;-48
2022/03/30 06:54:25;;;;;;;42.10;23.67;;;10.60;83.30;;;;;;5054767;28;20506;-47
2022/03/30 06:56:52;;;;;;;36.83;24.03;;;10.70;83.40;;;;;;5058319;28;20452;-48
2022/03/30 06:59:19;;;;;;;34.53;22.63;;;10.70;83.50;;;;;;5057763;28;21006;-48
2022/03/30 07:01:46;;;;;;;38.93;23.53;;;10.80;83.50;;;;;;5058031;28;20455;-47
2022/03/30 07:04:13;;;;;;;38.83;21.70;;;10.80;83.60;;;;;;5060312;28;20544;-47
2022/03/30 07:10:14;;;;;;;36.50;21.83;;;10.80;83.50;;;;;;5038979;28;20459;-47
2022/03/30 07:12:12;;;;;;;33.83;20.10;;;10.90;83.20;;;;;;5043479;28;20462;-47
2022/03/30 07:14:38;;;;;;;37.03;24.40;;;10.90;82.90;;;;;;5058509;28;20497;-48
2022/03/30 07:17:05;;;;;;;37.93;22.40;;;10.90;82.90;;;;;;5062355;28;20465;-47
2022/03/30 07:19:32;;;;;;;28.40;19.50;;;10.90;83.00;;;;;;5055911;28;20470;-48
2022/03/30 07:21:59;;;;;;;34.60;21.23;;;10.90;82.40;;;;;;5058646;28;20638;-47
2022/03/30 07:24:26;;;;;;;36.20;20.83;;;10.90;82.10;;;;;;5059354;28;20487;-47
2022/03/30 07:26:52;;;;;;;35.00;22.20;;;10.90;82.20;;;;;;5060290;28;20481;-47
2022/03/30 07:29:19;;;;;;;37.47;22.97;;;10.90;82.60;;;;;;5056964;28;20463;-48
2022/03/30 07:31:46;;;;;;;36.27;21.40;;;10.90;82.60;;;;;;5059299;28;20891;-48
2022/03/30 07:34:14;;;;;;;35.70;22.60;;;10.90;82.90;;;;;;5063509;28;21037;-47
2022/03/30 07:36:41;;;;;;;36.33;20.90;;;10.90;82.90;;;;;;5048284;28;20530;-47
2022/03/30 07:39:07;;;;;;;34.97;22.27;;;10.90;83.00;;;;;;5056771;28;20455;-48
2022/03/30 07:41:35;;;;;;;31.90;20.60;;;10.80;82.90;;;;;;5056102;28;20496;-48
2022/03/30 07:44:02;;;;;;;34.00;19.33;;;10.80;82.90;;;;;;5064085;28;20451;-47
2022/03/30 07:46:29;;;;;;;32.70;21.53;;;10.90;82.50;;;;;;5056736;28;20991;-47
2022/03/30 07:48:56;;;;;;;33.53;20.17;;;10.90;82.50;;;;;;5058235;28;21090;-47
2022/03/30 07:51:23;;;;;;;32.77;19.70;;;10.90;82.60;;;;;;5058184;28;20461;-47
2022/03/30 07:53:50;;;;;;;32.60;19.73;;;10.90;82.20;;;;;;5059197;28;20493;-47
2022/03/30 07:56:17;;;;;;;32.80;20.90;;;10.80;82.30;;;;;;5054500;28;20456;-48
2022/03/30 07:58:46;;;;;;;34.23;20.37;;;10.80;82.10;;;;;;5040612;28;20478;-48
2022/03/30 08:01:12;;;;;;;32.07;18.57;;;10.80;82.20;;;;;;5058647;28;20855;-48
2022/03/30 08:03:40;;;;;;;28.93;18.53;;;10.70;82.60;;;;;;5063142;28;20442;-48
2022/03/30 08:06:07;;;;;;;29.20;20.20;;;10.70;82.90;;;;;;5056773;28;20462;-47
2022/03/30 08:08:33;;;;;;;30.60;19.87;;;10.80;82.80;;;;;;5059833;28;20470;-48
2022/03/30 08:11:00;;;;;;;30.57;20.73;;;10.80;82.80;;;;;;5055258;28;20490;-47
2022/03/30 08:13:27;;;;;;;32.77;19.87;;;10.80;83.00;;;;;;5057868;28;20451;-47
2022/03/30 08:15:54;;;;;;;31.37;19.50;;;10.80;83.20;;;;;;5055945;28;20500;-47
2022/03/30 08:18:21;;;;;;;32.83;19.33;;;10.80;83.20;;;;;;5057136;28;20926;-47
2022/03/30 08:23:36;;;;;;;31.70;18.77;;;10.90;83.10;;;;;;5055605;28;20474;-48
2022/03/30 08:26:03;;;;;;;32.13;17.83;;;10.90;83.00;;;;;;5056231;28;20456;-47
2022/03/30 08:28:30;;;;;;;33.43;21.00;;;10.90;83.10;;;;;;5059163;28;20458;-47
2022/03/30 08:30:58;;;;;;;34.87;18.97;;;10.90;83.10;;;;;;5057991;28;20867;-47
2022/03/30 08:33:27;;;;;;;33.60;20.50;;;10.90;83.10;;;;;;5054796;28;20469;-47
2022/03/30 08:35:54;;;;;;;29.50;20.60;;;10.90;83.30;;;;;;5061651;28;20510;-47
2022/03/30 08:38:22;;;;;;;30.67;19.20;;;11.00;83.30;;;;;;5060821;28;20461;-47
2022/03/30 08:40:49;;;;;;;34.10;19.33;;;11.10;83.20;;;;;;5057400;28;20554;-48
2022/03/30 08:43:16;;;;;;;32.70;20.13;;;11.10;83.10;;;;;;5062834;28;20837;-47
2022/03/30 08:45:43;;;;;;;28.67;19.10;;;11.10;83.00;;;;;;5058837;28;20598;-47
2022/03/30 08:48:10;;;;;;;30.93;19.50;;;11.20;82.40;;;;;;5059667;28;20499;-47
2022/03/30 08:50:37;;;;;;;32.23;19.27;;;11.20;82.20;;;;;;5057403;28;20456;-47
2022/03/30 08:53:06;;;;;;;32.43;19.13;;;11.20;82.20;;;;;;5047954;28;20451;-48
2022/03/30 08:55:34;;;;;;;28.30;17.97;;;11.20;82.30;;;;;;5056174;28;20579;-48
2022/03/30 08:58:01;;;;;;;28.73;18.50;;;11.20;82.10;;;;;;5056768;28;20447;-48
2022/03/30 09:00:30;;;;;;;34.90;19.57;;;11.20;82.00;;;;;;5042017;28;20497;-48
2022/03/30 09:03:01;;;;;;;25.27;17.40;;;11.20;82.10;;;;;;5061477;28;20508;-47
2022/03/30 09:05:31;;;;;;;27.70;16.80;;;11.30;82.00;;;;;;5049087;28;20826;-47
2022/03/30 09:08:20;;;;;;;30.53;18.20;;;11.30;81.90;;;;;;5059717;28;20457;-47
2022/03/30 09:10:50;;;;;;;23.53;16.87;;;11.40;81.50;;;;;;5060223;28;20459;-48
2022/03/30 09:13:20;;;;;;;29.03;17.90;;;11.40;81.40;;;;;;5062708;28;20813;-47
2022/03/30 09:15:49;;;;;;;26.43;18.10;;;11.50;81.40;;;;;;5060876;28;20496;-47
2022/03/30 09:18:24;;;;;;;28.93;17.90;;;11.50;81.60;;;;;;5060079;28;21033;-47
2022/03/30 09:20:54;;;;;;;28.40;18.70;;;11.50;81.70;;;;;;5060433;28;20448;-47
2022/03/30 09:23:25;;;;;;;27.97;18.47;;;11.60;81.40;;;;;;5059041;28;20499;-48
2022/03/30 09:25:53;;;;;;;32.17;19.17;;;11.70;81.80;;;;;;5058879;28;20443;-48
2022/03/30 09:28:21;;;;;;;28.83;18.70;;;11.80;81.40;;;;;;5043944;28;20451;-48
2022/03/30 09:30:49;;;;;;;25.73;18.20;;;11.90;80.70;;;;;;5056544;28;20825;-49
2022/03/30 09:33:18;;;;;;;30.17;18.57;;;12.00;80.20;;;;;;5045320;28;20950;-47
2022/03/30 09:35:45;;;;;;;28.10;19.20;;;12.10;79.30;;;;;;5059550;28;20999;-47
2022/03/30 09:38:14;;;;;;;26.17;17.20;;;12.10;79.70;;;;;;5058679;28;20463;-46
2022/03/30 09:40:55;;;;;;;26.27;17.80;;;12.10;80.00;;;;;;5060701;28;20474;-47
2022/03/30 09:43:24;;;;;;;26.80;17.07;;;12.10;80.30;;;;;;5043518;28;20453;-47
2022/03/30 09:46:05;;;;;;;25.60;15.60;;;12.20;80.30;;;;;;5059863;28;20454;-47
2022/03/30 09:48:44;;;;;;;23.23;15.47;;;12.20;79.10;;;;;;5061274;28;20834;-47
2022/03/30 09:51:10;;;;;;;26.60;16.93;;;12.30;78.40;;;;;;5058973;28;20454;-47
2022/03/30 09:53:38;;;;;;;27.50;15.20;;;12.30;78.10;;;;;;5060677;28;20471;-47
2022/03/30 09:56:25;;;;;;;22.20;16.47;;;12.30;77.70;;;;;;5042677;28;21116;-47
2022/03/30 09:59:00;;;;;;;25.53;15.07;;;12.30;78.70;;;;;;5062786;28;20464;-47
2022/03/30 10:01:32;;;;;;;21.53;14.13;;;12.30;78.70;;;;;;5031455;28;20465;-47
2022/03/30 10:04:04;;;;;;;24.27;17.30;;;12.30;78.00;;;;;;5063732;28;20875;-47
2022/03/30 10:06:33;;;;;;;24.20;16.30;;;12.30;78.20;;;;;;5061008;28;20451;-47
2022/03/30 10:09:03;;;;;;;22.67;15.87;;;12.40;77.80;;;;;;5057735;28;20453;-47
2022/03/30 10:11:30;;;;;;;21.17;13.87;;;12.40;78.10;;;;;;5056158;28;20468;-47
2022/03/30 10:13:59;;;;;;;19.20;13.70;;;12.40;76.80;;;;;;5064157;28;20459;-47
2022/03/30 10:16:43;;;;;;;27.33;14.07;;;12.40;76.90;;;;;;5062237;28;20807;-46
2022/03/30 10:19:11;;;;;;;21.77;14.10;;;12.40;76.50;;;;;;5060359;28;20450;-46
2022/03/30 10:21:40;;;;;;;20.83;14.73;;;12.30;76.90;;;;;;5063025;28;20454;-46
2022/03/30 10:24:21;;;;;;;18.53;12.90;;;12.40;76.00;;;;;;5063457;28;20447;-47
2022/03/30 10:26:52;;;;;;;20.80;13.60;;;12.40;75.80;;;;;;5062404;28;20463;-46
2022/03/30 10:29:23;;;;;;;22.67;15.67;;;12.30;76.20;;;;;;5042861;28;20466;-46
2022/03/30 10:32:20;;;;;;;17.23;12.93;;;12.20;76.30;;;;;;5060886;28;20461;-48
2022/03/30 10:35:00;;;;;;;20.70;13.00;;;12.20;77.10;;;;;;5060409;28;20480;-46
2022/03/30 10:37:39;;;;;;;19.33;12.30;;;12.20;76.90;;;;;;5060879;28;20856;-46
2022/03/30 10:40:21;;;;;;;17.03;12.40;;;12.30;77.50;;;;;;5064614;28;20462;-46
2022/03/30 10:42:49;;;;;;;22.50;13.70;;;12.40;76.90;;;;;;5044972;28;20456;-46
2022/03/30 10:45:34;;;;;;;19.17;13.20;;;12.40;76.10;;;;;;5058475;28;20959;-46
2022/03/30 10:48:11;;;;;;;21.07;13.53;;;12.40;77.00;;;;;;5057001;28;20484;-46
2022/03/30 10:50:54;;;;;;;18.83;13.80;;;12.50;77.00;;;;;;5059120;28;20467;-47
2022/03/30 10:53:30;;;;;;;23.20;15.03;;;12.60;76.90;;;;;;5055563;28;20467;-47
2022/03/30 10:56:09;;;;;;;21.30;13.97;;;12.60;75.90;;;;;;5057324;28;20495;-46
2022/03/30 10:58:59;;;;;;;19.27;13.93;;;12.70;75.70;;;;;;5060199;28;20506;-48
2022/03/30 11:01:30;;;;;;;17.90;12.20;;;12.70;75.80;;;;;;5049057;28;21039;-48
2022/03/30 11:03:59;;;;;;;19.17;13.10;;;12.80;74.30;;;;;;5047762;28;20943;-48
2022/03/30 11:06:27;;;;;;;17.20;12.30;;;12.80;74.90;;;;;;5039710;28;20554;-47
2022/03/30 11:08:55;;;;;;;20.63;12.67;;;12.80;74.70;;;;;;5057706;28;20554;-46
2022/03/30 11:11:34;;;;;;;15.87;12.30;;;12.80;72.90;;;;;;5047929;28;20828;-48
2022/03/30 11:14:24;;;;;;;16.73;11.53;;;12.70;72.80;;;;;;5045463;28;21043;-47
2022/03/30 11:16:56;;;;;;;16.50;12.10;;;12.70;73.00;;;;;;5058076;28;20471;-47
2022/03/30 11:19:29;;;;;;;19.80;13.23;;;12.70;73.10;;;;;;5062269;28;20456;-47
2022/03/30 11:22:11;;;;;;;16.17;12.07;;;12.80;72.80;;;;;;5039764;28;20467;-47
2022/03/30 11:24:44;;;;;;;19.67;13.53;;;12.80;73.10;;;;;;5057213;28;20811;-47
2022/03/30 11:27:11;;;;;;;18.40;12.70;;;13.00;73.30;;;;;;5056248;28;20494;-47
2022/03/30 11:29:52;;;;;;;17.27;11.70;;;13.10;72.90;;;;;;5060038;28;20452;-47
2022/03/30 11:32:22;;;;;;;18.00;13.10;;;13.10;72.90;;;;;;5046806;28;20537;-47
2022/03/30 11:34:53;;;;;;;21.10;13.93;;;13.20;71.90;;;;;;5055685;28;21092;-47
2022/03/30 11:37:25;;;;;;;16.50;11.70;;;13.20;71.90;;;;;;5057890;28;20554;-47
2022/03/30 11:40:04;;;;;;;18.83;10.73;;;13.20;72.60;;;;;;5035670;28;20857;-47
2022/03/30 11:42:37;;;;;;;16.77;11.00;;;13.40;71.90;;;;;;5042629;28;20551;-47
2022/03/30 11:45:19;;;;;;;19.67;11.10;;;13.70;71.20;;;;;;5063202;28;20467;-47
2022/03/30 11:47:52;;;;;;;13.90;10.80;;;13.90;70.40;;;;;;5044627;28;20479;-47
2022/03/30 11:50:38;;;;;;;13.83;10.80;;;14.10;69.80;;;;;;5058359;28;20470;-47
2022/03/30 11:53:09;;;;;;;15.67;11.30;;;14.20;68.50;;;;;;5057555;28;20469;-47
2022/03/30 11:55:47;;;;;;;14.73;11.43;;;14.30;67.20;;;;;;5059447;28;22127;-47
2022/03/30 11:58:23;;;;;;;18.63;12.87;;;14.30;68.30;;;;;;5060126;28;20465;-47
2022/03/30 12:00:52;;;;;;;14.93;11.50;;;14.20;68.20;;;;;;5061110;28;21102;-47
2022/03/30 12:03:19;;;;;;;14.83;11.83;;;14.10;68.20;;;;;;5048434;28;20542;-47
2022/03/30 12:05:52;;;;;;;14.77;11.53;;;14.00;69.30;;;;;;5059520;28;20481;-47
2022/03/30 12:08:18;;;;;;;17.30;12.43;;;13.90;69.60;;;;;;5061553;28;20459;-47
2022/03/30 12:10:48;;;;;;;16.00;11.80;;;13.90;70.30;;;;;;5062112;28;20464;-48
2022/03/30 12:13:23;;;;;;;19.13;12.67;;;13.90;70.50;;;;;;5058575;28;20449;-47
2022/03/30 12:16:09;;;;;;;15.20;11.43;;;13.90;70.10;;;;;;5059730;28;20494;-47
2022/03/30 12:18:44;;;;;;;17.50;12.20;;;13.90;69.80;;;;;;5056611;28;20455;-47
2022/03/30 12:21:19;;;;;;;16.23;11.27;;;14.00;68.90;;;;;;5057495;28;23111;-47
2022/03/30 12:23:54;;;;;;;14.37;10.60;;;14.00;68.10;;;;;;5055892;28;20455;-47
2022/03/30 12:26:40;;;;;;;17.10;11.30;;;14.00;67.00;;;;;;5051948;28;20456;-47
2022/03/30 12:29:09;;;;;;;14.90;11.40;;;14.00;67.90;;;;;;5039887;28;20468;-47
2022/03/30 12:31:38;;;;;;;14.27;11.40;;;14.10;67.50;;;;;;5054488;28;20923;-47
2022/03/30 12:34:11;;;;;;;15.33;11.20;;;14.00;69.00;;;;;;5057831;28;20472;-47
2022/03/30 12:36:49;;;;;;;13.60;9.87;;;14.00;67.60;;;;;;5059411;28;20488;-47
2022/03/30 12:39:19;;;;;;;11.53;9.17;;;14.00;66.70;;;;;;5061216;28;20474;-47
2022/03/30 12:42:07;;;;;;;15.50;10.17;;;13.90;67.30;;;;;;5063701;28;20547;-48
2022/03/30 12:44:39;;;;;;;14.17;10.30;;;13.80;67.50;;;;;;5060680;28;20476;-47
2022/03/30 12:47:31;;;;;;;16.13;11.37;;;13.80;67.20;;;;;;5052630;28;20488;-48